sensor_id;sensor_type;location;lat;lon;timestamp;P1;durP1;ratioP1;P2;durP2;ratioP2
28245;SDS011;15510;52.512;13.300;2023-03-17T00:01:17;6.23;;;2.67;;
28245;SDS011;15510;52.512;13.300;2023-03-17T00:03:45;4.90;;;2.30;;
28245;SDS011;15510;52.512;13.300;2023-03-17T00:06:16;3.73;;;2.73;;
28245;SDS011;15510;52.512;13.300;2023-03-17T00:08:48;6.63;;;2.90;;
28245;SDS011;15510;52.512;13.300;2023-03-17T00:11:15;4.37;;;2.90;;
28245;SDS011;15510;52.512;13.300;2023-03-17T00:13:42;6.13;;;2.40;;
28245;SDS011;15510;52.512;13.300;2023-03-17T00:16:11;5.33;;;2.53;;
28245;SDS011;15510;52.512;13.300;2023-03-17T00:18:41;5.37;;;2.80;;
28245;SDS011;15510;52.512;13.300;2023-03-17T00:21:11;4.40;;;2.40;;
28245;SDS011;15510;52.512;13.300;2023-03-17T00:23:39;5.80;;;2.87;;
28245;SDS011;15510;52.512;13.300;2023-03-17T00:26:06;9.00;;;3.33;;
28245;SDS011;15510;52.512;13.300;2023-03-17T00:28:34;6.33;;;2.90;;
28245;SDS011;15510;52.512;13.300;2023-03-17T00:31:00;5.03;;;3.13;;
28245;SDS011;15510;52.512;13.300;2023-03-17T00:33:30;4.60;;;2.77;;
28245;SDS011;15510;52.512;13.300;2023-03-17T00:35:58;5.57;;;2.80;;
28245;SDS011;15510;52.512;13.300;2023-03-17T00:38:25;7.73;;;2.93;;
28245;SDS011;15510;52.512;13.300;2023-03-17T00:40:51;5.40;;;3.30;;
28245;SDS011;15510;52.512;13.300;2023-03-17T00:43:20;6.80;;;3.27;;
28245;SDS011;15510;52.512;13.300;2023-03-17T00:45:46;5.53;;;2.90;;
28245;SDS011;15510;52.512;13.300;2023-03-17T00:48:13;6.33;;;3.03;;
28245;SDS011;15510;52.512;13.300;2023-03-17T00:50:42;6.93;;;3.40;;
28245;SDS011;15510;52.512;13.300;2023-03-17T00:53:14;7.07;;;3.17;;
28245;SDS011;15510;52.512;13.300;2023-03-17T00:55:42;4.83;;;3.27;;
28245;SDS011;15510;52.512;13.300;2023-03-17T00:58:11;3.50;;;2.73;;
28245;SDS011;15510;52.512;13.300;2023-03-17T01:00:49;6.13;;;3.37;;
28245;SDS011;15510;52.512;13.300;2023-03-17T01:03:17;8.37;;;3.73;;
28245;SDS011;15510;52.512;13.300;2023-03-17T01:05:43;7.73;;;3.37;;
28245;SDS011;15510;52.512;13.300;2023-03-17T01:08:11;5.53;;;3.57;;
28245;SDS011;15510;52.512;13.300;2023-03-17T01:10:39;5.73;;;3.30;;
28245;SDS011;15510;52.512;13.300;2023-03-17T01:13:05;5.73;;;3.50;;
28245;SDS011;15510;52.512;13.300;2023-03-17T01:15:32;7.70;;;3.43;;
28245;SDS011;15510;52.512;13.300;2023-03-17T01:17:59;6.03;;;3.20;;
28245;SDS011;15510;52.512;13.300;2023-03-17T01:20:28;6.67;;;3.53;;
28245;SDS011;15510;52.512;13.300;2023-03-17T01:22:58;6.77;;;3.90;;
28245;SDS011;15510;52.512;13.300;2023-03-17T01:25:24;5.23;;;2.67;;
28245;SDS011;15510;52.512;13.300;2023-03-17T01:27:52;5.47;;;3.37;;
28245;SDS011;15510;52.512;13.300;2023-03-17T01:32:51;10.20;;;3.13;;
28245;SDS011;15510;52.512;13.300;2023-03-17T01:35:18;6.97;;;3.30;;
28245;SDS011;15510;52.512;13.300;2023-03-17T01:37:44;5.03;;;3.37;;
28245;SDS011;15510;52.512;13.300;2023-03-17T01:40:15;10.10;;;3.77;;
28245;SDS011;15510;52.512;13.300;2023-03-17T01:42:47;6.53;;;3.30;;
28245;SDS011;15510;52.512;13.300;2023-03-17T01:48:20;5.93;;;3.33;;
28245;SDS011;15510;52.512;13.300;2023-03-17T01:50:47;6.27;;;3.70;;
28245;SDS011;15510;52.512;13.300;2023-03-17T01:53:14;8.03;;;3.73;;
28245;SDS011;15510;52.512;13.300;2023-03-17T01:55:40;5.83;;;3.70;;
28245;SDS011;15510;52.512;13.300;2023-03-17T01:58:09;8.60;;;4.20;;
28245;SDS011;15510;52.512;13.300;2023-03-17T02:00:36;5.87;;;3.67;;
28245;SDS011;15510;52.512;13.300;2023-03-17T02:03:03;12.23;;;4.43;;
28245;SDS011;15510;52.512;13.300;2023-03-17T02:05:30;7.33;;;3.57;;
28245;SDS011;15510;52.512;13.300;2023-03-17T02:07:57;7.00;;;3.80;;
28245;SDS011;15510;52.512;13.300;2023-03-17T02:10:26;5.83;;;4.23;;
28245;SDS011;15510;52.512;13.300;2023-03-17T02:12:54;7.20;;;3.97;;
28245;SDS011;15510;52.512;13.300;2023-03-17T02:15:23;7.00;;;4.37;;
28245;SDS011;15510;52.512;13.300;2023-03-17T02:17:59;8.77;;;4.33;;
28245;SDS011;15510;52.512;13.300;2023-03-17T02:22:51;10.50;;;4.67;;
28245;SDS011;15510;52.512;13.300;2023-03-17T02:25:19;6.73;;;4.40;;
28245;SDS011;15510;52.512;13.300;2023-03-17T02:27:47;9.13;;;4.43;;
28245;SDS011;15510;52.512;13.300;2023-03-17T02:30:19;8.87;;;4.57;;
28245;SDS011;15510;52.512;13.300;2023-03-17T02:32:46;7.47;;;3.90;;
28245;SDS011;15510;52.512;13.300;2023-03-17T02:35:12;6.70;;;3.77;;
28245;SDS011;15510;52.512;13.300;2023-03-17T02:37:39;7.07;;;4.23;;
28245;SDS011;15510;52.512;13.300;2023-03-17T02:40:08;7.07;;;4.50;;
28245;SDS011;15510;52.512;13.300;2023-03-17T02:42:35;6.23;;;3.53;;
28245;SDS011;15510;52.512;13.300;2023-03-17T02:45:03;10.03;;;4.70;;
28245;SDS011;15510;52.512;13.300;2023-03-17T02:47:30;7.87;;;4.63;;
28245;SDS011;15510;52.512;13.300;2023-03-17T02:49:56;5.90;;;4.23;;
28245;SDS011;15510;52.512;13.300;2023-03-17T02:52:23;8.07;;;4.30;;
28245;SDS011;15510;52.512;13.300;2023-03-17T02:54:49;8.50;;;4.53;;
28245;SDS011;15510;52.512;13.300;2023-03-17T02:57:15;7.63;;;4.17;;
28245;SDS011;15510;52.512;13.300;2023-03-17T02:59:41;6.97;;;4.23;;
28245;SDS011;15510;52.512;13.300;2023-03-17T03:02:07;8.47;;;4.37;;
28245;SDS011;15510;52.512;13.300;2023-03-17T03:04:33;8.33;;;3.90;;
28245;SDS011;15510;52.512;13.300;2023-03-17T03:07:00;8.10;;;4.70;;
28245;SDS011;15510;52.512;13.300;2023-03-17T03:09:26;9.37;;;4.63;;
28245;SDS011;15510;52.512;13.300;2023-03-17T03:11:52;8.70;;;4.47;;
28245;SDS011;15510;52.512;13.300;2023-03-17T03:14:18;8.73;;;4.93;;
28245;SDS011;15510;52.512;13.300;2023-03-17T03:16:44;7.63;;;4.60;;
28245;SDS011;15510;52.512;13.300;2023-03-17T03:19:10;7.10;;;4.40;;
28245;SDS011;15510;52.512;13.300;2023-03-17T03:21:36;10.10;;;5.10;;
28245;SDS011;15510;52.512;13.300;2023-03-17T03:24:02;8.20;;;4.30;;
28245;SDS011;15510;52.512;13.300;2023-03-17T03:26:28;8.97;;;4.40;;
28245;SDS011;15510;52.512;13.300;2023-03-17T03:28:54;7.00;;;4.47;;
28245;SDS011;15510;52.512;13.300;2023-03-17T03:31:22;9.67;;;4.60;;
28245;SDS011;15510;52.512;13.300;2023-03-17T03:33:48;9.23;;;4.50;;
28245;SDS011;15510;52.512;13.300;2023-03-17T03:36:14;7.37;;;4.40;;
28245;SDS011;15510;52.512;13.300;2023-03-17T03:38:40;8.67;;;4.57;;
28245;SDS011;15510;52.512;13.300;2023-03-17T03:41:07;9.97;;;4.17;;
28245;SDS011;15510;52.512;13.300;2023-03-17T03:43:33;8.93;;;4.33;;
28245;SDS011;15510;52.512;13.300;2023-03-17T03:46:00;9.33;;;4.53;;
28245;SDS011;15510;52.512;13.300;2023-03-17T03:48:26;6.40;;;4.10;;
28245;SDS011;15510;52.512;13.300;2023-03-17T03:50:56;5.00;;;3.83;;
28245;SDS011;15510;52.512;13.300;2023-03-17T03:53:22;8.87;;;4.70;;
28245;SDS011;15510;52.512;13.300;2023-03-17T03:55:48;8.63;;;4.20;;
28245;SDS011;15510;52.512;13.300;2023-03-17T03:58:14;8.70;;;4.40;;
28245;SDS011;15510;52.512;13.300;2023-03-17T04:00:40;7.07;;;4.47;;
28245;SDS011;15510;52.512;13.300;2023-03-17T04:03:06;6.77;;;3.67;;
28245;SDS011;15510;52.512;13.300;2023-03-17T04:05:32;9.20;;;4.47;;
28245;SDS011;15510;52.512;13.300;2023-03-17T04:07:58;7.97;;;5.13;;
28245;SDS011;15510;52.512;13.300;2023-03-17T04:10:23;6.30;;;4.10;;
28245;SDS011;15510;52.512;13.300;2023-03-17T04:12:50;13.53;;;5.00;;
28245;SDS011;15510;52.512;13.300;2023-03-17T04:15:16;6.50;;;4.03;;
28245;SDS011;15510;52.512;13.300;2023-03-17T04:17:43;7.53;;;4.30;;
28245;SDS011;15510;52.512;13.300;2023-03-17T04:20:10;8.43;;;4.13;;
28245;SDS011;15510;52.512;13.300;2023-03-17T04:22:37;8.37;;;4.50;;
28245;SDS011;15510;52.512;13.300;2023-03-17T04:25:03;7.43;;;4.20;;
28245;SDS011;15510;52.512;13.300;2023-03-17T04:27:29;4.90;;;3.67;;
28245;SDS011;15510;52.512;13.300;2023-03-17T04:29:56;6.63;;;3.83;;
28245;SDS011;15510;52.512;13.300;2023-03-17T04:32:22;7.50;;;4.50;;
28245;SDS011;15510;52.512;13.300;2023-03-17T04:34:48;7.50;;;4.27;;
28245;SDS011;15510;52.512;13.300;2023-03-17T04:37:13;9.07;;;5.07;;
28245;SDS011;15510;52.512;13.300;2023-03-17T04:39:39;6.20;;;4.20;;
28245;SDS011;15510;52.512;13.300;2023-03-17T04:42:06;7.60;;;4.13;;
28245;SDS011;15510;52.512;13.300;2023-03-17T04:44:32;9.03;;;4.40;;
28245;SDS011;15510;52.512;13.300;2023-03-17T04:46:58;9.23;;;4.50;;
28245;SDS011;15510;52.512;13.300;2023-03-17T04:49:24;7.57;;;4.20;;
28245;SDS011;15510;52.512;13.300;2023-03-17T04:51:50;8.73;;;4.60;;
28245;SDS011;15510;52.512;13.300;2023-03-17T04:54:16;8.03;;;4.57;;
28245;SDS011;15510;52.512;13.300;2023-03-17T04:56:42;11.47;;;4.93;;
28245;SDS011;15510;52.512;13.300;2023-03-17T04:59:08;8.13;;;4.07;;
28245;SDS011;15510;52.512;13.300;2023-03-17T05:01:34;7.03;;;3.97;;
28245;SDS011;15510;52.512;13.300;2023-03-17T05:04:00;9.67;;;3.83;;
28245;SDS011;15510;52.512;13.300;2023-03-17T05:06:26;8.73;;;4.47;;
28245;SDS011;15510;52.512;13.300;2023-03-17T05:08:52;8.03;;;4.33;;
28245;SDS011;15510;52.512;13.300;2023-03-17T05:11:18;8.50;;;4.43;;
28245;SDS011;15510;52.512;13.300;2023-03-17T05:13:43;6.67;;;3.93;;
28245;SDS011;15510;52.512;13.300;2023-03-17T05:16:09;7.90;;;4.07;;
28245;SDS011;15510;52.512;13.300;2023-03-17T05:18:36;7.40;;;3.80;;
28245;SDS011;15510;52.512;13.300;2023-03-17T05:21:03;6.27;;;4.03;;
28245;SDS011;15510;52.512;13.300;2023-03-17T05:23:30;8.87;;;4.10;;
28245;SDS011;15510;52.512;13.300;2023-03-17T05:25:56;7.60;;;4.20;;
28245;SDS011;15510;52.512;13.300;2023-03-17T05:28:22;7.87;;;4.40;;
28245;SDS011;15510;52.512;13.300;2023-03-17T05:30:48;8.73;;;4.17;;
28245;SDS011;15510;52.512;13.300;2023-03-17T05:33:15;8.07;;;4.13;;
28245;SDS011;15510;52.512;13.300;2023-03-17T05:35:41;5.97;;;4.00;;
28245;SDS011;15510;52.512;13.300;2023-03-17T05:38:08;6.40;;;3.97;;
28245;SDS011;15510;52.512;13.300;2023-03-17T05:40:36;8.83;;;4.20;;
28245;SDS011;15510;52.512;13.300;2023-03-17T05:43:02;6.63;;;3.80;;
28245;SDS011;15510;52.512;13.300;2023-03-17T05:45:29;6.63;;;3.63;;
28245;SDS011;15510;52.512;13.300;2023-03-17T05:47:55;11.10;;;4.10;;
28245;SDS011;15510;52.512;13.300;2023-03-17T05:50:22;5.07;;;3.70;;
28245;SDS011;15510;52.512;13.300;2023-03-17T05:52:47;7.27;;;4.27;;
28245;SDS011;15510;52.512;13.300;2023-03-17T05:55:15;5.33;;;3.70;;
28245;SDS011;15510;52.512;13.300;2023-03-17T05:57:42;6.67;;;4.13;;
28245;SDS011;15510;52.512;13.300;2023-03-17T06:00:08;11.17;;;3.40;;
28245;SDS011;15510;52.512;13.300;2023-03-17T06:02:34;5.50;;;3.80;;
28245;SDS011;15510;52.512;13.300;2023-03-17T06:05:00;6.30;;;3.53;;
28245;SDS011;15510;52.512;13.300;2023-03-17T06:07:26;5.57;;;3.63;;
28245;SDS011;15510;52.512;13.300;2023-03-17T06:09:52;8.10;;;3.73;;
28245;SDS011;15510;52.512;13.300;2023-03-17T06:12:18;4.93;;;3.80;;
28245;SDS011;15510;52.512;13.300;2023-03-17T06:14:45;7.20;;;3.80;;
28245;SDS011;15510;52.512;13.300;2023-03-17T06:17:10;5.87;;;4.00;;
28245;SDS011;15510;52.512;13.300;2023-03-17T06:19:36;6.00;;;3.53;;
28245;SDS011;15510;52.512;13.300;2023-03-17T06:22:02;7.63;;;4.33;;
28245;SDS011;15510;52.512;13.300;2023-03-17T06:24:28;11.07;;;4.27;;
28245;SDS011;15510;52.512;13.300;2023-03-17T06:26:54;8.33;;;3.70;;
28245;SDS011;15510;52.512;13.300;2023-03-17T06:29:20;8.17;;;3.43;;
28245;SDS011;15510;52.512;13.300;2023-03-17T06:31:46;5.90;;;3.40;;
28245;SDS011;15510;52.512;13.300;2023-03-17T06:34:18;8.03;;;4.63;;
28245;SDS011;15510;52.512;13.300;2023-03-17T06:36:45;8.00;;;4.20;;
28245;SDS011;15510;52.512;13.300;2023-03-17T06:39:11;8.50;;;3.70;;
28245;SDS011;15510;52.512;13.300;2023-03-17T06:41:38;6.80;;;3.53;;
28245;SDS011;15510;52.512;13.300;2023-03-17T06:44:04;5.70;;;3.70;;
28245;SDS011;15510;52.512;13.300;2023-03-17T06:46:30;8.73;;;3.70;;
28245;SDS011;15510;52.512;13.300;2023-03-17T06:48:56;8.67;;;4.27;;
28245;SDS011;15510;52.512;13.300;2023-03-17T06:51:22;7.10;;;3.37;;
28245;SDS011;15510;52.512;13.300;2023-03-17T06:53:49;8.83;;;3.57;;
28245;SDS011;15510;52.512;13.300;2023-03-17T06:56:15;6.47;;;3.23;;
28245;SDS011;15510;52.512;13.300;2023-03-17T06:58:41;5.53;;;3.87;;
28245;SDS011;15510;52.512;13.300;2023-03-17T07:01:07;5.13;;;3.30;;
28245;SDS011;15510;52.512;13.300;2023-03-17T07:03:33;9.07;;;3.80;;
28245;SDS011;15510;52.512;13.300;2023-03-17T07:06:00;4.47;;;3.37;;
28245;SDS011;15510;52.512;13.300;2023-03-17T07:08:25;13.00;;;3.87;;
28245;SDS011;15510;52.512;13.300;2023-03-17T07:10:54;6.93;;;3.50;;
28245;SDS011;15510;52.512;13.300;2023-03-17T07:13:21;6.90;;;3.30;;
28245;SDS011;15510;52.512;13.300;2023-03-17T07:15:49;7.40;;;3.70;;
28245;SDS011;15510;52.512;13.300;2023-03-17T07:18:15;8.47;;;3.60;;
28245;SDS011;15510;52.512;13.300;2023-03-17T07:20:42;7.83;;;3.93;;
28245;SDS011;15510;52.512;13.300;2023-03-17T07:23:20;10.53;;;4.87;;
28245;SDS011;15510;52.512;13.300;2023-03-17T07:25:46;9.37;;;3.70;;
28245;SDS011;15510;52.512;13.300;2023-03-17T07:28:13;10.27;;;3.70;;
28245;SDS011;15510;52.512;13.300;2023-03-17T07:30:39;6.97;;;3.57;;
28245;SDS011;15510;52.512;13.300;2023-03-17T07:33:11;6.83;;;3.50;;
28245;SDS011;15510;52.512;13.300;2023-03-17T07:35:37;6.70;;;4.10;;
28245;SDS011;15510;52.512;13.300;2023-03-17T07:38:03;5.33;;;3.57;;
28245;SDS011;15510;52.512;13.300;2023-03-17T07:40:29;4.90;;;3.33;;
28245;SDS011;15510;52.512;13.300;2023-03-17T07:42:55;6.67;;;3.30;;
28245;SDS011;15510;52.512;13.300;2023-03-17T07:45:21;5.10;;;3.57;;
28245;SDS011;15510;52.512;13.300;2023-03-17T07:47:46;7.43;;;3.50;;
28245;SDS011;15510;52.512;13.300;2023-03-17T07:50:12;5.30;;;3.40;;
28245;SDS011;15510;52.512;13.300;2023-03-17T07:52:39;5.83;;;3.13;;
28245;SDS011;15510;52.512;13.300;2023-03-17T07:55:06;4.50;;;2.97;;
28245;SDS011;15510;52.512;13.300;2023-03-17T07:57:34;10.23;;;3.80;;
28245;SDS011;15510;52.512;13.300;2023-03-17T08:00:01;7.27;;;3.53;;
28245;SDS011;15510;52.512;13.300;2023-03-17T08:02:36;5.67;;;3.40;;
28245;SDS011;15510;52.512;13.300;2023-03-17T08:05:02;6.43;;;3.67;;
28245;SDS011;15510;52.512;13.300;2023-03-17T08:07:29;9.83;;;3.70;;
28245;SDS011;15510;52.512;13.300;2023-03-17T08:09:55;13.10;;;3.80;;
28245;SDS011;15510;52.512;13.300;2023-03-17T08:12:22;6.17;;;3.50;;
28245;SDS011;15510;52.512;13.300;2023-03-17T08:14:48;6.27;;;3.37;;
28245;SDS011;15510;52.512;13.300;2023-03-17T08:17:14;14.67;;;3.93;;
28245;SDS011;15510;52.512;13.300;2023-03-17T08:19:41;8.43;;;3.83;;
28245;SDS011;15510;52.512;13.300;2023-03-17T08:22:08;8.03;;;3.70;;
28245;SDS011;15510;52.512;13.300;2023-03-17T08:24:34;8.40;;;3.73;;
28245;SDS011;15510;52.512;13.300;2023-03-17T08:27:01;13.27;;;3.63;;
28245;SDS011;15510;52.512;13.300;2023-03-17T08:29:26;8.37;;;4.13;;
28245;SDS011;15510;52.512;13.300;2023-03-17T08:31:53;10.23;;;3.60;;
28245;SDS011;15510;52.512;13.300;2023-03-17T08:34:18;10.70;;;3.93;;
28245;SDS011;15510;52.512;13.300;2023-03-17T08:36:44;8.80;;;3.83;;
28245;SDS011;15510;52.512;13.300;2023-03-17T08:39:10;6.63;;;3.53;;
28245;SDS011;15510;52.512;13.300;2023-03-17T08:41:36;7.17;;;4.33;;
28245;SDS011;15510;52.512;13.300;2023-03-17T08:44:02;7.13;;;3.40;;
28245;SDS011;15510;52.512;13.300;2023-03-17T08:46:29;4.73;;;3.43;;
28245;SDS011;15510;52.512;13.300;2023-03-17T08:48:57;6.63;;;3.73;;
28245;SDS011;15510;52.512;13.300;2023-03-17T08:51:24;5.83;;;3.27;;
28245;SDS011;15510;52.512;13.300;2023-03-17T08:53:53;5.17;;;3.10;;
28245;SDS011;15510;52.512;13.300;2023-03-17T08:56:20;9.17;;;3.70;;
28245;SDS011;15510;52.512;13.300;2023-03-17T08:58:46;6.23;;;3.33;;
28245;SDS011;15510;52.512;13.300;2023-03-17T09:01:13;9.30;;;3.37;;
28245;SDS011;15510;52.512;13.300;2023-03-17T09:03:39;8.43;;;3.60;;
28245;SDS011;15510;52.512;13.300;2023-03-17T09:06:06;7.07;;;3.77;;
28245;SDS011;15510;52.512;13.300;2023-03-17T09:08:36;6.50;;;3.73;;
28245;SDS011;15510;52.512;13.300;2023-03-17T09:11:07;6.77;;;3.37;;
28245;SDS011;15510;52.512;13.300;2023-03-17T09:13:34;7.20;;;3.33;;
28245;SDS011;15510;52.512;13.300;2023-03-17T09:16:03;8.33;;;3.70;;
28245;SDS011;15510;52.512;13.300;2023-03-17T09:18:30;5.93;;;3.70;;
28245;SDS011;15510;52.512;13.300;2023-03-17T09:20:57;8.50;;;4.00;;
28245;SDS011;15510;52.512;13.300;2023-03-17T09:23:23;8.33;;;3.83;;
28245;SDS011;15510;52.512;13.300;2023-03-17T09:25:49;4.57;;;3.70;;
28245;SDS011;15510;52.512;13.300;2023-03-17T09:28:16;8.43;;;3.80;;
28245;SDS011;15510;52.512;13.300;2023-03-17T09:30:42;8.00;;;3.53;;
28245;SDS011;15510;52.512;13.300;2023-03-17T09:33:12;6.73;;;3.80;;
28245;SDS011;15510;52.512;13.300;2023-03-17T09:35:38;8.03;;;3.40;;
28245;SDS011;15510;52.512;13.300;2023-03-17T09:38:05;5.77;;;3.50;;
28245;SDS011;15510;52.512;13.300;2023-03-17T09:40:44;6.40;;;3.93;;
28245;SDS011;15510;52.512;13.300;2023-03-17T09:46:06;7.10;;;3.67;;
28245;SDS011;15510;52.512;13.300;2023-03-17T09:48:56;10.93;;;4.20;;
28245;SDS011;15510;52.512;13.300;2023-03-17T09:51:25;6.40;;;3.57;;
28245;SDS011;15510;52.512;13.300;2023-03-17T09:53:58;4.73;;;3.40;;
28245;SDS011;15510;52.512;13.300;2023-03-17T09:56:27;6.60;;;3.80;;
28245;SDS011;15510;52.512;13.300;2023-03-17T09:58:57;4.60;;;3.13;;
28245;SDS011;15510;52.512;13.300;2023-03-17T10:01:31;7.20;;;3.20;;
28245;SDS011;15510;52.512;13.300;2023-03-17T10:03:57;4.60;;;3.10;;
28245;SDS011;15510;52.512;13.300;2023-03-17T10:17:29;19.07;;;3.90;;
28245;SDS011;15510;52.512;13.300;2023-03-17T10:23:00;8.30;;;3.33;;
28245;SDS011;15510;52.512;13.300;2023-03-17T10:25:32;7.23;;;3.57;;
28245;SDS011;15510;52.512;13.300;2023-03-17T10:28:06;6.97;;;2.97;;
28245;SDS011;15510;52.512;13.300;2023-03-17T10:30:44;4.73;;;3.27;;
28245;SDS011;15510;52.512;13.300;2023-03-17T10:33:10;7.23;;;3.43;;
28245;SDS011;15510;52.512;13.300;2023-03-17T10:35:37;4.57;;;2.77;;
28245;SDS011;15510;52.512;13.300;2023-03-17T10:38:22;8.57;;;3.30;;
28245;SDS011;15510;52.512;13.300;2023-03-17T10:40:58;7.23;;;3.27;;
28245;SDS011;15510;52.512;13.300;2023-03-17T10:43:28;5.47;;;3.23;;
28245;SDS011;15510;52.512;13.300;2023-03-17T10:46:01;4.47;;;3.00;;
28245;SDS011;15510;52.512;13.300;2023-03-17T10:48:29;6.87;;;3.47;;
28245;SDS011;15510;52.512;13.300;2023-03-17T10:50:59;7.57;;;3.10;;
28245;SDS011;15510;52.512;13.300;2023-03-17T10:53:35;7.80;;;3.20;;
28245;SDS011;15510;52.512;13.300;2023-03-17T10:56:06;5.20;;;3.10;;
28245;SDS011;15510;52.512;13.300;2023-03-17T10:58:37;3.70;;;2.83;;
28245;SDS011;15510;52.512;13.300;2023-03-17T11:04:25;5.43;;;2.72;;
28245;SDS011;15510;52.512;13.300;2023-03-17T11:06:57;3.85;;;2.72;;
28245;SDS011;15510;52.512;13.300;2023-03-17T11:09:24;7.68;;;3.13;;
28245;SDS011;15510;52.512;13.300;2023-03-17T11:12:04;4.90;;;2.70;;
28245;SDS011;15510;52.512;13.300;2023-03-17T11:14:47;5.03;;;3.15;;
28245;SDS011;15510;52.512;13.300;2023-03-17T11:25:10;7.10;;;2.42;;
28245;SDS011;15510;52.512;13.300;2023-03-17T11:40:37;3.92;;;2.50;;
28245;SDS011;15510;52.512;13.300;2023-03-17T11:46:11;4.28;;;2.30;;
28245;SDS011;15510;52.512;13.300;2023-03-17T11:48:47;2.90;;;2.40;;
28245;SDS011;15510;52.512;13.300;2023-03-17T11:51:35;7.97;;;2.65;;
28245;SDS011;15510;52.512;13.300;2023-03-17T11:56:53;4.43;;;2.55;;
28245;SDS011;15510;52.512;13.300;2023-03-17T12:02:19;5.18;;;2.10;;
28245;SDS011;15510;52.512;13.300;2023-03-17T12:07:24;4.47;;;2.50;;
28245;SDS011;15510;52.512;13.300;2023-03-17T12:10:05;5.00;;;2.45;;
28245;SDS011;15510;52.512;13.300;2023-03-17T12:15:30;4.22;;;2.70;;
28245;SDS011;15510;52.512;13.300;2023-03-17T12:18:35;5.57;;;2.53;;
28245;SDS011;15510;52.512;13.300;2023-03-17T12:21:06;4.95;;;2.42;;
28245;SDS011;15510;52.512;13.300;2023-03-17T12:37:50;4.22;;;2.05;;
28245;SDS011;15510;52.512;13.300;2023-03-17T12:40:42;3.70;;;2.17;;
28245;SDS011;15510;52.512;13.300;2023-03-17T12:49:04;3.13;;;1.88;;
28245;SDS011;15510;52.512;13.300;2023-03-17T12:52:01;8.25;;;1.83;;
28245;SDS011;15510;52.512;13.300;2023-03-17T12:54:45;7.50;;;2.60;;
28245;SDS011;15510;52.512;13.300;2023-03-17T12:57:16;7.32;;;2.08;;
28245;SDS011;15510;52.512;13.300;2023-03-17T12:59:45;3.60;;;2.35;;
28245;SDS011;15510;52.512;13.300;2023-03-17T13:04:54;3.65;;;2.30;;
28245;SDS011;15510;52.512;13.300;2023-03-17T13:10:43;7.50;;;2.60;;
28245;SDS011;15510;52.512;13.300;2023-03-17T13:13:32;8.25;;;2.47;;
28245;SDS011;15510;52.512;13.300;2023-03-17T13:16:04;9.30;;;2.08;;
28245;SDS011;15510;52.512;13.300;2023-03-17T13:18:49;4.80;;;1.80;;
28245;SDS011;15510;52.512;13.300;2023-03-17T13:21:18;3.38;;;1.83;;
28245;SDS011;15510;52.512;13.300;2023-03-17T13:23:56;4.47;;;1.88;;
28245;SDS011;15510;52.512;13.300;2023-03-17T13:34:44;4.75;;;2.33;;
28245;SDS011;15510;52.512;13.300;2023-03-17T13:47:51;4.22;;;2.15;;
28245;SDS011;15510;52.512;13.300;2023-03-17T13:50:38;4.30;;;2.15;;
28245;SDS011;15510;52.512;13.300;2023-03-17T13:53:06;4.45;;;2.22;;
28245;SDS011;15510;52.512;13.300;2023-03-17T13:55:41;4.88;;;2.20;;
28245;SDS011;15510;52.512;13.300;2023-03-17T13:58:30;3.67;;;2.10;;
28245;SDS011;15510;52.512;13.300;2023-03-17T14:01:02;5.15;;;2.67;;
28245;SDS011;15510;52.512;13.300;2023-03-17T14:03:36;4.03;;;2.60;;
28245;SDS011;15510;52.512;13.300;2023-03-17T14:06:06;6.30;;;3.22;;
28245;SDS011;15510;52.512;13.300;2023-03-17T14:08:37;4.60;;;2.25;;
28245;SDS011;15510;52.512;13.300;2023-03-17T14:11:43;4.63;;;2.50;;
28245;SDS011;15510;52.512;13.300;2023-03-17T14:16:57;6.45;;;2.28;;
28245;SDS011;15510;52.512;13.300;2023-03-17T14:22:54;4.68;;;1.98;;
28245;SDS011;15510;52.512;13.300;2023-03-17T14:25:29;15.02;;;9.48;;
28245;SDS011;15510;52.512;13.300;2023-03-17T14:28:01;5.10;;;2.60;;
28245;SDS011;15510;52.512;13.300;2023-03-17T14:30:30;4.47;;;2.30;;
28245;SDS011;15510;52.512;13.300;2023-03-17T14:35:38;3.72;;;2.25;;
28245;SDS011;15510;52.512;13.300;2023-03-17T14:38:20;7.32;;;2.70;;
28245;SDS011;15510;52.512;13.300;2023-03-17T14:40:58;4.35;;;2.15;;
28245;SDS011;15510;52.512;13.300;2023-03-17T14:43:31;5.88;;;2.50;;
28245;SDS011;15510;52.512;13.300;2023-03-17T14:46:05;3.15;;;1.88;;
28245;SDS011;15510;52.512;13.300;2023-03-17T14:48:36;2.70;;;1.88;;
28245;SDS011;15510;52.512;13.300;2023-03-17T14:51:06;4.30;;;2.00;;
28245;SDS011;15510;52.512;13.300;2023-03-17T14:53:47;4.30;;;2.47;;
28245;SDS011;15510;52.512;13.300;2023-03-17T14:56:22;3.72;;;1.95;;
28245;SDS011;15510;52.512;13.300;2023-03-17T14:58:51;5.18;;;2.20;;
28245;SDS011;15510;52.512;13.300;2023-03-17T15:04:13;7.75;;;1.85;;
28245;SDS011;15510;52.512;13.300;2023-03-17T15:06:49;4.15;;;1.95;;
28245;SDS011;15510;52.512;13.300;2023-03-17T15:12:41;4.00;;;1.92;;
28245;SDS011;15510;52.512;13.300;2023-03-17T15:14:46;2.90;;;1.60;;
28245;SDS011;15510;52.512;13.300;2023-03-17T15:17:32;2.63;;;1.63;;
28245;SDS011;15510;52.512;13.300;2023-03-17T15:20:01;2.97;;;1.70;;
28245;SDS011;15510;52.512;13.300;2023-03-17T15:27:47;4.07;;;1.95;;
28245;SDS011;15510;52.512;13.300;2023-03-17T15:30:13;5.07;;;1.70;;
28245;SDS011;15510;52.512;13.300;2023-03-17T15:32:40;2.95;;;1.92;;
28245;SDS011;15510;52.512;13.300;2023-03-17T15:35:06;3.15;;;2.13;;
28245;SDS011;15510;52.512;13.300;2023-03-17T15:37:35;4.47;;;1.73;;
28245;SDS011;15510;52.512;13.300;2023-03-17T15:40:04;6.82;;;2.10;;
28245;SDS011;15510;52.512;13.300;2023-03-17T15:42:33;5.65;;;2.10;;
28245;SDS011;15510;52.512;13.300;2023-03-17T15:45:00;8.15;;;2.13;;
28245;SDS011;15510;52.512;13.300;2023-03-17T15:47:28;4.53;;;2.20;;
28245;SDS011;15510;52.512;13.300;2023-03-17T15:50:11;7.43;;;1.90;;
28245;SDS011;15510;52.512;13.300;2023-03-17T15:52:38;4.45;;;1.95;;
28245;SDS011;15510;52.512;13.300;2023-03-17T15:55:14;7.38;;;2.13;;
28245;SDS011;15510;52.512;13.300;2023-03-17T15:57:43;5.38;;;2.03;;
28245;SDS011;15510;52.512;13.300;2023-03-17T16:00:18;7.80;;;2.03;;
28245;SDS011;15510;52.512;13.300;2023-03-17T16:02:46;6.10;;;2.20;;
28245;SDS011;15510;52.512;13.300;2023-03-17T16:05:18;6.47;;;2.40;;
28245;SDS011;15510;52.512;13.300;2023-03-17T16:07:53;7.82;;;2.50;;
28245;SDS011;15510;52.512;13.300;2023-03-17T16:10:20;6.50;;;2.37;;
28245;SDS011;15510;52.512;13.300;2023-03-17T16:12:48;4.03;;;2.20;;
28245;SDS011;15510;52.512;13.300;2023-03-17T16:15:19;7.07;;;2.33;;
28245;SDS011;15510;52.512;13.300;2023-03-17T16:17:47;6.07;;;1.90;;
28245;SDS011;15510;52.512;13.300;2023-03-17T16:22:54;6.28;;;2.28;;
28245;SDS011;15510;52.512;13.300;2023-03-17T16:25:26;2.95;;;2.08;;
28245;SDS011;15510;52.512;13.300;2023-03-17T16:27:55;6.23;;;2.20;;
28245;SDS011;15510;52.512;13.300;2023-03-17T16:30:23;6.07;;;2.38;;
28245;SDS011;15510;52.512;13.300;2023-03-17T16:32:55;5.15;;;2.00;;
28245;SDS011;15510;52.512;13.300;2023-03-17T16:35:27;7.50;;;2.22;;
28245;SDS011;15510;52.512;13.300;2023-03-17T16:37:53;5.13;;;2.22;;
28245;SDS011;15510;52.512;13.300;2023-03-17T16:40:41;4.47;;;2.08;;
28245;SDS011;15510;52.512;13.300;2023-03-17T16:43:12;4.45;;;2.00;;
28245;SDS011;15510;52.512;13.300;2023-03-17T16:45:43;4.38;;;2.50;;
28245;SDS011;15510;52.512;13.300;2023-03-17T16:48:10;4.63;;;2.00;;
28245;SDS011;15510;52.512;13.300;2023-03-17T16:50:38;3.63;;;2.30;;
28245;SDS011;15510;52.512;13.300;2023-03-17T16:53:05;3.20;;;2.00;;
28245;SDS011;15510;52.512;13.300;2023-03-17T16:55:31;4.15;;;2.35;;